createdAt,value
2018-07-20T00:00:02.619Z,0
2018-07-20T00:00:28.747Z,0
2018-07-20T00:00:54.897Z,0
2018-07-20T00:01:21.036Z,0
2018-07-20T00:01:47.202Z,0
2018-07-20T00:02:13.343Z,0
2018-07-20T00:02:39.474Z,0
2018-07-20T00:03:05.611Z,0
2018-07-20T00:03:31.746Z,0
2018-07-20T00:03:57.891Z,0
2018-07-20T00:04:24.024Z,0
2018-07-20T00:04:50.166Z,0
2018-07-20T00:05:16.304Z,0
2018-07-20T00:05:42.440Z,0
2018-07-20T00:06:08.575Z,0
2018-07-20T00:06:34.746Z,0
2018-07-20T00:07:00.949Z,0
2018-07-20T00:07:27.060Z,0
2018-07-20T00:07:53.199Z,0
2018-07-20T00:08:19.338Z,0
2018-07-20T00:08:45.485Z,0
2018-07-20T00:09:11.620Z,0
2018-07-20T00:09:37.761Z,0
2018-07-20T00:10:03.917Z,0
2018-07-20T00:10:30.065Z,0
2018-07-20T00:10:56.201Z,0
2018-07-20T00:11:22.341Z,0
2018-07-20T00:11:48.476Z,0
2018-07-20T00:12:14.664Z,0
2018-07-20T00:12:40.805Z,0
2018-07-20T00:13:06.966Z,0
2018-07-20T00:13:33.107Z,0
2018-07-20T00:13:59.247Z,0
2018-07-20T00:14:25.391Z,0
2018-07-20T00:14:51.520Z,0
2018-07-20T00:15:17.661Z,0
2018-07-20T00:15:43.803Z,0
2018-07-20T00:16:09.945Z,0
2018-07-20T00:16:36.089Z,0
2018-07-20T00:17:02.217Z,0
2018-07-20T00:17:28.355Z,0
2018-07-20T00:17:54.498Z,0
2018-07-20T00:18:20.638Z,0
2018-07-20T00:18:46.772Z,0
2018-07-20T00:20:54.902Z,0
2018-07-20T00:21:21.060Z,0
2018-07-20T00:21:47.200Z,0
2018-07-20T00:22:13.411Z,0
2018-07-20T00:22:39.479Z,0
2018-07-20T00:23:05.641Z,0
2018-07-20T00:23:31.780Z,0
2018-07-20T00:23:57.927Z,0
2018-07-20T00:24:24.079Z,0
2018-07-20T00:24:50.217Z,0
2018-07-20T00:25:16.360Z,0
2018-07-20T00:25:42.529Z,0
2018-07-20T00:26:08.671Z,0
2018-07-20T00:26:34.806Z,0
2018-07-20T00:27:00.948Z,0
2018-07-20T00:27:27.082Z,0
2018-07-20T00:27:53.226Z,0
2018-07-20T00:28:19.374Z,0
2018-07-20T00:28:45.508Z,0
2018-07-20T00:29:11.670Z,0
2018-07-20T00:29:37.833Z,0
2018-07-20T00:30:03.995Z,0
2018-07-20T00:30:30.239Z,0
2018-07-20T00:30:56.269Z,0
2018-07-20T00:31:22.427Z,0
2018-07-20T00:31:48.568Z,0
2018-07-20T00:32:14.707Z,0
2018-07-20T00:32:40.876Z,0
2018-07-20T00:33:07.013Z,0
2018-07-20T00:33:33.177Z,0
2018-07-20T00:33:59.322Z,0
2018-07-20T00:34:25.463Z,0
2018-07-20T00:34:51.600Z,0
2018-07-20T00:35:17.765Z,0
2018-07-20T00:35:43.909Z,0
2018-07-20T00:36:10.053Z,0
2018-07-20T00:36:36.212Z,0
2018-07-20T00:37:02.348Z,0
2018-07-20T00:37:28.485Z,0
2018-07-20T00:37:54.619Z,0
2018-07-20T00:38:20.787Z,0
2018-07-20T00:38:46.921Z,0
2018-07-20T00:39:13.063Z,0
2018-07-20T00:39:39.199Z,0
2018-07-20T00:40:05.335Z,0
2018-07-20T00:40:31.476Z,0
2018-07-20T00:40:57.644Z,0
2018-07-20T00:41:23.803Z,0
2018-07-20T00:41:49.943Z,0
2018-07-20T00:42:16.087Z,0
2018-07-20T00:42:42.229Z,0
2018-07-20T00:43:08.395Z,0
2018-07-20T00:43:34.578Z,0
2018-07-20T00:44:00.762Z,0
2018-07-20T00:44:26.901Z,0
2018-07-20T00:44:53.033Z,0
2018-07-20T00:45:19.165Z,0
2018-07-20T00:45:45.306Z,0
2018-07-20T00:46:11.469Z,0
2018-07-20T00:46:37.625Z,0
2018-07-20T00:47:03.772Z,0
2018-07-20T00:47:29.905Z,0
2018-07-20T00:47:56.041Z,0
2018-07-20T00:48:22.187Z,0
2018-07-20T00:48:48.345Z,0
2018-07-20T00:49:14.493Z,0
2018-07-20T00:49:40.655Z,0
2018-07-20T00:50:06.795Z,0
2018-07-20T00:50:33.562Z,0
2018-07-20T00:50:59.700Z,0
2018-07-20T00:51:25.847Z,0
2018-07-20T00:51:51.987Z,0
2018-07-20T00:52:18.151Z,0
2018-07-20T00:52:44.289Z,0
2018-07-20T00:53:10.471Z,0
2018-07-20T00:53:36.609Z,0
2018-07-20T00:54:02.743Z,0
2018-07-20T00:54:28.893Z,0
2018-07-20T00:54:55.031Z,0
2018-07-20T00:55:21.163Z,0
2018-07-20T00:55:47.297Z,0
2018-07-20T00:56:13.439Z,0
2018-07-20T00:56:39.574Z,0
2018-07-20T00:57:05.712Z,0
2018-07-20T00:57:31.849Z,0
2018-07-20T00:57:57.989Z,0
2018-07-20T00:58:24.143Z,0
2018-07-20T00:58:50.283Z,0
2018-07-20T00:59:16.442Z,0
2018-07-20T00:59:42.613Z,0
2018-07-20T01:00:08.749Z,0
2018-07-20T01:00:34.915Z,0
2018-07-20T01:01:01.058Z,0
2018-07-20T01:01:27.187Z,0
2018-07-20T01:01:53.328Z,0
2018-07-20T01:02:19.471Z,0
2018-07-20T01:02:45.613Z,0
2018-07-20T01:03:11.747Z,0
2018-07-20T01:03:37.893Z,0
2018-07-20T01:04:04.055Z,0
2018-07-20T01:04:30.193Z,0
2018-07-20T01:04:56.354Z,0
2018-07-20T01:05:22.511Z,0
2018-07-20T01:05:48.626Z,0
2018-07-20T01:06:14.764Z,0
2018-07-20T01:06:40.925Z,0
2018-07-20T01:07:07.063Z,0
2018-07-20T01:07:33.210Z,0
2018-07-20T01:07:59.343Z,0
2018-07-20T01:08:25.484Z,0
2018-07-20T01:08:51.648Z,0
2018-07-20T01:09:17.808Z,0
2018-07-20T01:09:43.944Z,0
2018-07-20T01:10:10.082Z,0
2018-07-20T01:10:36.217Z,0
2018-07-20T01:11:02.386Z,0
2018-07-20T01:11:28.522Z,0
2018-07-20T01:11:54.660Z,0
2018-07-20T01:12:20.800Z,0
2018-07-20T01:12:46.935Z,0
2018-07-20T01:13:13.081Z,0
2018-07-20T01:13:39.212Z,0
2018-07-20T01:14:05.354Z,0
2018-07-20T01:14:31.499Z,0
2018-07-20T01:14:57.643Z,0
2018-07-20T01:15:23.776Z,0
2018-07-20T01:15:49.913Z,0
2018-07-20T01:16:16.047Z,0
2018-07-20T01:16:42.186Z,0
2018-07-20T01:17:08.376Z,0
2018-07-20T01:17:34.504Z,0
2018-07-20T01:18:00.646Z,0
2018-07-20T01:18:26.783Z,0
2018-07-20T01:18:52.916Z,0
2018-07-20T01:19:19.079Z,0
2018-07-20T01:19:45.215Z,0
2018-07-20T01:20:11.402Z,0
2018-07-20T01:20:37.546Z,0
2018-07-20T01:21:03.709Z,0
2018-07-20T01:21:29.847Z,0
2018-07-20T01:21:55.986Z,0
2018-07-20T01:22:22.125Z,0
2018-07-20T01:22:48.291Z,0
2018-07-20T01:23:14.425Z,0
2018-07-20T01:23:40.570Z,0
2018-07-20T01:24:06.707Z,0
2018-07-20T01:24:32.882Z,0
2018-07-20T01:24:59.065Z,0
2018-07-20T01:25:25.197Z,0
2018-07-20T01:25:51.331Z,0
2018-07-20T01:26:17.473Z,0
2018-07-20T01:26:43.611Z,0
2018-07-20T01:27:09.802Z,0
2018-07-20T01:27:35.940Z,0
2018-07-20T01:28:02.078Z,0
2018-07-20T01:28:28.224Z,0
2018-07-20T01:28:54.363Z,0
2018-07-20T01:29:20.499Z,0
2018-07-20T01:29:46.637Z,0
2018-07-20T01:30:12.774Z,0
2018-07-20T01:30:38.910Z,0
2018-07-20T01:31:05.044Z,0
2018-07-20T01:31:31.186Z,0
2018-07-20T01:31:57.331Z,0
2018-07-20T01:32:23.466Z,0
2018-07-20T01:32:49.597Z,0
2018-07-20T01:33:15.736Z,0
2018-07-20T01:33:41.873Z,0
2018-07-20T01:34:08.012Z,0
2018-07-20T01:34:34.177Z,0
2018-07-20T01:35:00.322Z,0
2018-07-20T01:35:26.462Z,0
2018-07-20T01:35:52.647Z,0
2018-07-20T01:36:18.781Z,0
2018-07-20T01:36:44.925Z,0
2018-07-20T01:37:11.066Z,0
2018-07-20T01:37:37.222Z,0
2018-07-20T01:38:03.364Z,0
2018-07-20T01:38:29.502Z,0
2018-07-20T01:38:55.640Z,0
2018-07-20T01:39:21.773Z,0
2018-07-20T01:39:47.912Z,0
2018-07-20T01:40:14.053Z,0
2018-07-20T01:40:40.208Z,0
2018-07-20T01:41:06.349Z,0
2018-07-20T01:41:32.491Z,0
2018-07-20T01:41:58.652Z,0
2018-07-20T01:42:24.787Z,0
2018-07-20T01:42:50.949Z,0
2018-07-20T01:43:17.116Z,0
2018-07-20T01:43:43.249Z,0
2018-07-20T01:44:09.422Z,0
2018-07-20T01:44:35.606Z,0
2018-07-20T01:45:01.771Z,0
2018-07-20T01:45:27.929Z,0
2018-07-20T01:45:54.073Z,0
2018-07-20T01:46:20.209Z,0
2018-07-20T01:46:46.359Z,0
2018-07-20T01:47:12.501Z,0
2018-07-20T01:47:38.644Z,0
2018-07-20T01:48:04.783Z,0
2018-07-20T01:48:30.936Z,0
2018-07-20T01:48:57.077Z,0
2018-07-20T01:49:23.241Z,0
2018-07-20T01:49:49.429Z,0
2018-07-20T01:50:15.565Z,0
2018-07-20T01:50:41.706Z,0
2018-07-20T01:51:07.844Z,0
2018-07-20T01:51:33.983Z,0
2018-07-20T01:52:00.124Z,0
2018-07-20T01:52:26.259Z,0
2018-07-20T01:52:52.399Z,0
2018-07-20T01:53:18.536Z,0
2018-07-20T01:53:44.674Z,0
2018-07-20T01:54:10.815Z,0
2018-07-20T01:54:36.950Z,0
2018-07-20T01:55:03.095Z,0
2018-07-20T01:55:29.235Z,0
2018-07-20T01:55:55.371Z,0
2018-07-20T01:56:21.519Z,0
2018-07-20T01:56:47.659Z,0
2018-07-20T01:57:13.799Z,0
2018-07-20T01:57:39.942Z,0
2018-07-20T01:58:06.072Z,0
2018-07-20T01:58:32.214Z,0
2018-07-20T01:58:58.344Z,0
2018-07-20T01:59:24.489Z,0
2018-07-20T01:59:50.622Z,0
2018-07-20T02:00:16.762Z,0
2018-07-20T02:00:42.924Z,0
2018-07-20T02:01:09.058Z,0
2018-07-20T02:01:35.195Z,0
2018-07-20T02:02:01.338Z,0
2018-07-20T02:02:27.476Z,0
2018-07-20T02:02:53.617Z,0
2018-07-20T02:03:19.754Z,0
2018-07-20T02:03:45.897Z,0
2018-07-20T02:04:12.034Z,0
2018-07-20T02:04:38.178Z,0
2018-07-20T02:05:04.309Z,0
2018-07-20T02:05:30.472Z,0
2018-07-20T02:05:56.611Z,0
2018-07-20T02:06:22.743Z,0
2018-07-20T02:06:48.934Z,0
2018-07-20T02:07:15.110Z,0
2018-07-20T02:07:41.248Z,0
2018-07-20T02:08:07.388Z,0
2018-07-20T02:08:33.525Z,0
2018-07-20T02:08:59.661Z,0
2018-07-20T02:09:25.799Z,0
2018-07-20T02:09:51.936Z,0
2018-07-20T02:10:18.102Z,0
2018-07-20T02:10:44.240Z,0
2018-07-20T02:11:10.429Z,0
2018-07-20T02:11:36.585Z,0
2018-07-20T02:12:02.764Z,0
2018-07-20T02:12:28.902Z,0
2018-07-20T02:12:55.039Z,0
2018-07-20T02:13:21.180Z,0
2018-07-20T02:13:47.312Z,0
2018-07-20T02:14:13.454Z,0
2018-07-20T02:14:39.615Z,0
2018-07-20T02:15:05.753Z,0
2018-07-20T02:15:31.890Z,0
2018-07-20T02:15:58.039Z,0
2018-07-20T02:16:24.195Z,0
2018-07-20T02:16:50.333Z,0
2018-07-20T02:17:16.476Z,0
2018-07-20T02:17:42.612Z,0
2018-07-20T02:18:08.756Z,0
2018-07-20T02:18:34.892Z,0
2018-07-20T02:19:01.027Z,0
2018-07-20T02:19:27.161Z,0
2018-07-20T02:19:53.292Z,0
2018-07-20T02:20:19.429Z,0
2018-07-20T02:20:45.575Z,0
2018-07-20T02:21:11.706Z,0
2018-07-20T02:21:37.855Z,0
2018-07-20T02:22:03.982Z,0
2018-07-20T02:22:30.120Z,0
2018-07-20T02:22:56.256Z,0
2018-07-20T02:23:22.390Z,0
2018-07-20T02:23:48.532Z,0
2018-07-20T02:24:14.676Z,0
2018-07-20T02:24:40.838Z,0
2018-07-20T02:25:06.968Z,0
2018-07-20T02:25:33.105Z,0
2018-07-20T02:25:59.237Z,0
2018-07-20T02:26:25.380Z,0
2018-07-20T02:26:51.526Z,0
2018-07-20T02:27:17.665Z,0
2018-07-20T02:27:43.820Z,0
2018-07-20T02:28:09.968Z,0
2018-07-20T02:28:36.103Z,0
2018-07-20T02:29:02.265Z,0
2018-07-20T02:29:28.462Z,0
2018-07-20T02:29:54.534Z,0
2018-07-20T02:30:20.675Z,0
2018-07-20T02:30:46.815Z,0
2018-07-20T02:31:13.034Z,0
2018-07-20T02:31:39.189Z,0
2018-07-20T02:32:05.346Z,0
2018-07-20T02:32:31.512Z,0
2018-07-20T02:32:57.652Z,0
2018-07-20T02:33:23.811Z,0
2018-07-20T02:33:49.992Z,0
2018-07-20T02:34:16.162Z,0
2018-07-20T02:34:42.307Z,0
2018-07-20T02:35:08.471Z,0
2018-07-20T02:35:34.605Z,0
2018-07-20T02:36:00.829Z,0
2018-07-20T02:36:26.917Z,0
2018-07-20T02:36:53.106Z,0
2018-07-20T02:37:19.254Z,0
2018-07-20T02:37:45.419Z,0
2018-07-20T02:38:11.610Z,0
2018-07-20T02:38:37.784Z,0
2018-07-20T02:39:03.943Z,0
2018-07-20T02:39:30.080Z,0
2018-07-20T02:39:56.240Z,0
2018-07-20T02:40:22.426Z,0
2018-07-20T02:40:48.560Z,0
2018-07-20T02:41:14.722Z,0
2018-07-20T02:41:40.871Z,0
2018-07-20T02:42:07.003Z,0
2018-07-20T02:42:33.138Z,0
2018-07-20T02:42:59.296Z,0
2018-07-20T02:43:25.457Z,0
2018-07-20T02:43:51.626Z,0
2018-07-20T02:44:17.819Z,0
2018-07-20T02:44:43.959Z,0
2018-07-20T02:45:10.116Z,0
2018-07-20T02:45:36.309Z,0
2018-07-20T02:46:02.440Z,0
2018-07-20T02:46:28.632Z,0
2018-07-20T02:46:54.770Z,0
2018-07-20T02:47:20.931Z,0
2018-07-20T02:47:47.090Z,0
2018-07-20T02:48:13.226Z,0
2018-07-20T02:48:39.378Z,0
2018-07-20T02:49:05.536Z,0
2018-07-20T02:49:31.726Z,0
2018-07-20T02:49:57.887Z,0
2018-07-20T02:50:24.056Z,0
2018-07-20T02:50:50.218Z,0
2018-07-20T02:51:16.384Z,0
2018-07-20T02:51:42.546Z,0
2018-07-20T02:52:08.688Z,0
2018-07-20T02:52:34.823Z,0
2018-07-20T02:53:00.966Z,0
2018-07-20T02:53:27.120Z,0
2018-07-20T02:53:53.256Z,0
2018-07-20T02:54:19.401Z,0
2018-07-20T02:54:45.580Z,0
2018-07-20T02:55:11.776Z,0
2018-07-20T02:55:37.944Z,0
2018-07-20T02:56:04.076Z,0
2018-07-20T02:56:30.232Z,0
2018-07-20T02:56:56.366Z,0
2018-07-20T02:57:22.535Z,0
2018-07-20T02:57:48.674Z,0
2018-07-20T02:58:14.838Z,0
2018-07-20T02:58:40.996Z,0
2018-07-20T02:59:07.166Z,0
2018-07-20T02:59:33.305Z,0
2018-07-20T02:59:59.494Z,0
2018-07-20T03:00:25.631Z,0
2018-07-20T03:00:51.778Z,0
2018-07-20T03:01:17.943Z,0
2018-07-20T03:01:44.106Z,0
2018-07-20T03:02:10.282Z,0
2018-07-20T03:02:36.487Z,0
2018-07-20T03:03:02.620Z,0
2018-07-20T03:03:28.786Z,0
2018-07-20T03:03:54.923Z,0
2018-07-20T03:04:21.101Z,0
2018-07-20T03:04:47.386Z,0
2018-07-20T03:05:13.664Z,0
2018-07-20T03:05:39.902Z,0
2018-07-20T03:06:06.301Z,0
2018-07-20T03:06:32.605Z,0
2018-07-20T03:06:58.879Z,0
2018-07-20T03:07:25.176Z,0
2018-07-20T03:07:51.304Z,0
2018-07-20T03:08:17.452Z,0
2018-07-20T03:08:43.582Z,0
2018-07-20T03:09:09.806Z,0
2018-07-20T03:09:35.916Z,0
2018-07-20T03:10:02.076Z,0
2018-07-20T03:10:28.211Z,0
2018-07-20T03:10:54.397Z,0
2018-07-20T03:11:20.579Z,0
2018-07-20T03:11:46.715Z,0
2018-07-20T03:12:12.877Z,0
2018-07-20T03:12:39.038Z,0
2018-07-20T03:13:05.182Z,0
2018-07-20T03:13:31.370Z,0
2018-07-20T03:13:57.526Z,0
2018-07-20T03:14:23.664Z,0
2018-07-20T03:14:49.830Z,0
2018-07-20T03:15:15.968Z,0
2018-07-20T03:15:42.112Z,0
2018-07-20T03:16:08.257Z,0
2018-07-20T03:16:34.395Z,0
2018-07-20T03:17:00.528Z,0
2018-07-20T03:17:26.658Z,0
2018-07-20T03:17:52.841Z,0
2018-07-20T03:18:19.001Z,0
2018-07-20T03:18:45.161Z,0
2018-07-20T03:19:11.311Z,0
2018-07-20T03:19:37.468Z,0
2018-07-20T03:20:03.665Z,0
2018-07-20T03:20:29.827Z,0
2018-07-20T03:20:56.014Z,0
2018-07-20T03:21:22.141Z,0
2018-07-20T03:21:48.319Z,0
2018-07-20T03:22:14.473Z,0
2018-07-20T03:22:40.606Z,0
2018-07-20T03:23:06.752Z,0
2018-07-20T03:23:32.920Z,0
2018-07-20T03:23:59.055Z,0
2018-07-20T03:24:25.220Z,0
2018-07-20T03:24:51.377Z,0
2018-07-20T03:25:17.536Z,5
2018-07-20T03:25:43.712Z,5
2018-07-20T03:26:09.841Z,5
2018-07-20T03:26:36.017Z,5
2018-07-20T03:27:02.171Z,5
2018-07-20T03:27:28.306Z,5
2018-07-20T03:27:54.462Z,5
2018-07-20T03:28:20.622Z,5
2018-07-20T03:28:46.759Z,5
2018-07-20T03:29:12.886Z,5
2018-07-20T03:29:39.033Z,5
2018-07-20T03:30:05.169Z,5
2018-07-20T03:30:31.332Z,5
2018-07-20T03:30:57.495Z,5
2018-07-20T03:31:23.653Z,5
2018-07-20T03:31:49.810Z,5
2018-07-20T03:32:15.973Z,5
2018-07-20T03:32:42.174Z,5
2018-07-20T03:33:08.293Z,5
2018-07-20T03:33:34.431Z,5
2018-07-20T03:34:00.570Z,5
2018-07-20T03:34:26.699Z,5
2018-07-20T03:34:52.867Z,10
2018-07-20T03:35:19.004Z,10
2018-07-20T03:35:45.163Z,10
2018-07-20T03:36:11.302Z,10
2018-07-20T03:36:37.439Z,10
2018-07-20T03:37:03.581Z,10
2018-07-20T03:37:29.724Z,10
2018-07-20T03:37:55.858Z,10
2018-07-20T03:38:21.993Z,10
2018-07-20T03:38:48.145Z,10
2018-07-20T03:39:14.281Z,10
2018-07-20T03:39:40.424Z,10
2018-07-20T03:40:06.563Z,10
2018-07-20T03:40:32.717Z,10
2018-07-20T03:40:58.852Z,10
2018-07-20T03:41:24.997Z,15
2018-07-20T03:41:51.164Z,15
2018-07-20T03:42:17.302Z,15
2018-07-20T03:42:43.444Z,15
2018-07-20T03:43:09.579Z,15
2018-07-20T03:43:35.725Z,15
2018-07-20T03:44:01.891Z,15
2018-07-20T03:44:28.052Z,15
2018-07-20T03:44:54.240Z,15
2018-07-20T03:45:20.380Z,15
2018-07-20T03:45:46.523Z,15
2018-07-20T03:46:12.654Z,15
2018-07-20T03:46:38.794Z,15
2018-07-20T03:47:04.938Z,15
2018-07-20T03:47:31.080Z,20
2018-07-20T03:47:57.220Z,20
2018-07-20T03:48:23.370Z,20
2018-07-20T03:48:49.532Z,20
2018-07-20T03:49:15.712Z,20
2018-07-20T03:49:41.840Z,20
2018-07-20T03:50:07.978Z,20
2018-07-20T03:50:34.142Z,20
2018-07-20T03:51:00.279Z,20
2018-07-20T03:51:26.446Z,20
2018-07-20T03:51:52.600Z,20
2018-07-20T03:52:18.791Z,20
2018-07-20T03:52:44.901Z,25
2018-07-20T03:53:11.038Z,25
2018-07-20T03:53:37.172Z,25
2018-07-20T03:54:03.313Z,25
2018-07-20T03:54:29.482Z,25
2018-07-20T03:54:55.612Z,25
2018-07-20T03:55:21.752Z,25
2018-07-20T03:55:47.893Z,25
2018-07-20T03:56:14.051Z,25
2018-07-20T03:56:40.212Z,30
2018-07-20T03:57:06.379Z,30
2018-07-20T03:57:32.542Z,30
2018-07-20T03:57:58.675Z,30
2018-07-20T03:58:24.808Z,30
2018-07-20T03:58:50.945Z,30
2018-07-20T03:59:17.101Z,30
2018-07-20T03:59:43.241Z,30
2018-07-20T04:00:09.405Z,35
2018-07-20T04:00:35.548Z,35
2018-07-20T04:01:01.686Z,35
2018-07-20T04:01:27.830Z,35
2018-07-20T04:01:53.971Z,35
2018-07-20T04:02:20.177Z,35
2018-07-20T04:02:46.269Z,35
2018-07-20T04:03:12.452Z,40
2018-07-20T04:03:38.543Z,40
2018-07-20T04:04:04.692Z,40
2018-07-20T04:04:30.822Z,40
2018-07-20T04:04:56.968Z,40
2018-07-20T04:05:23.102Z,40
2018-07-20T04:05:49.239Z,40
2018-07-20T04:06:15.372Z,45
2018-07-20T04:06:41.513Z,45
2018-07-20T04:07:07.654Z,45
2018-07-20T04:07:33.783Z,45
2018-07-20T04:07:59.922Z,45
2018-07-20T04:08:26.099Z,45
2018-07-20T04:08:52.247Z,45
2018-07-20T04:09:18.388Z,45
2018-07-20T04:09:44.519Z,45
2018-07-20T04:10:10.690Z,45
2018-07-20T04:10:36.821Z,45
2018-07-20T04:11:02.961Z,45
2018-07-20T04:11:29.102Z,45
2018-07-20T04:11:55.263Z,45
2018-07-20T04:12:21.400Z,45
2018-07-20T04:12:47.564Z,45
2018-07-20T04:13:13.696Z,45
2018-07-20T04:13:39.832Z,45
2018-07-20T04:14:05.978Z,45
2018-07-20T04:14:32.126Z,45
2018-07-20T04:14:58.264Z,50
2018-07-20T04:15:24.425Z,50
2018-07-20T04:15:50.569Z,50
2018-07-20T04:16:16.703Z,50
2018-07-20T04:16:42.862Z,50
2018-07-20T04:17:08.988Z,50
2018-07-20T04:17:35.140Z,50
2018-07-20T04:18:01.277Z,55
2018-07-20T04:18:27.420Z,55
2018-07-20T04:18:53.565Z,55
2018-07-20T04:19:19.709Z,55
2018-07-20T04:19:45.844Z,60
2018-07-20T04:20:11.986Z,60
2018-07-20T04:20:38.149Z,60
2018-07-20T04:21:04.310Z,60
2018-07-20T04:21:30.448Z,65
2018-07-20T04:21:56.591Z,65
2018-07-20T04:22:22.733Z,65
2018-07-20T04:22:48.868Z,65
2018-07-20T04:23:15.004Z,65
2018-07-20T04:23:41.143Z,65
2018-07-20T04:24:07.286Z,65
2018-07-20T04:24:33.423Z,65
2018-07-20T04:24:59.562Z,70
2018-07-20T04:25:25.699Z,70
2018-07-20T04:25:51.837Z,70
2018-07-20T04:26:17.983Z,70
2018-07-20T04:26:44.116Z,70
2018-07-20T04:27:10.245Z,70
2018-07-20T04:27:36.389Z,70
2018-07-20T04:28:02.528Z,70
2018-07-20T04:28:28.663Z,70
2018-07-20T04:28:54.802Z,75
2018-07-20T04:29:20.940Z,75
2018-07-20T04:29:47.077Z,75
2018-07-20T04:30:13.220Z,75
2018-07-20T04:30:39.359Z,80
2018-07-20T04:31:05.499Z,80
2018-07-20T04:31:31.659Z,80
2018-07-20T04:31:57.801Z,80
2018-07-20T04:32:23.943Z,80
2018-07-20T04:32:50.078Z,80
2018-07-20T04:33:16.209Z,90
2018-07-20T04:33:42.348Z,85
2018-07-20T04:34:08.514Z,85
2018-07-20T04:34:34.679Z,85
2018-07-20T04:35:00.835Z,85
2018-07-20T04:35:26.975Z,85
2018-07-20T04:35:53.114Z,90
2018-07-20T04:36:19.303Z,90
2018-07-20T04:36:45.390Z,90
2018-07-20T04:37:11.528Z,90
2018-07-20T04:37:37.670Z,90
2018-07-20T04:38:03.831Z,90
2018-07-20T04:38:29.981Z,95
2018-07-20T04:38:56.133Z,95
2018-07-20T04:39:22.272Z,95
2018-07-20T04:39:48.442Z,95
2018-07-20T04:40:14.576Z,95
2018-07-20T04:40:40.746Z,100
2018-07-20T04:41:06.886Z,100
2018-07-20T04:41:33.022Z,100
2018-07-20T04:41:59.159Z,100
2018-07-20T04:42:25.322Z,100
2018-07-20T04:42:51.465Z,105
2018-07-20T04:43:17.602Z,105
2018-07-20T04:43:43.751Z,105
2018-07-20T04:44:09.877Z,110
2018-07-20T04:44:36.012Z,110
2018-07-20T04:45:02.150Z,115
2018-07-20T04:45:28.306Z,115
2018-07-20T04:45:54.473Z,115
2018-07-20T04:46:20.610Z,120
2018-07-20T04:46:46.747Z,120
2018-07-20T04:47:12.886Z,120
2018-07-20T04:47:39.025Z,125
2018-07-20T04:48:05.169Z,125
2018-07-20T04:48:31.320Z,125
2018-07-20T04:48:57.466Z,130
2018-07-20T04:49:23.608Z,130
2018-07-20T04:49:49.788Z,130
2018-07-20T04:50:15.874Z,135
2018-07-20T04:50:42.021Z,135
2018-07-20T04:51:08.148Z,135
2018-07-20T04:51:34.313Z,135
2018-07-20T04:52:00.454Z,135
2018-07-20T04:52:26.625Z,140
2018-07-20T04:52:52.802Z,140
2018-07-20T04:53:18.962Z,145
2018-07-20T04:53:45.105Z,150
2018-07-20T04:54:11.263Z,150
2018-07-20T04:54:37.427Z,150
2018-07-20T04:55:03.567Z,155
2018-07-20T04:55:29.728Z,155
2018-07-20T04:55:55.866Z,160
2018-07-20T04:56:22.005Z,160
2018-07-20T04:56:48.143Z,160
2018-07-20T04:57:14.284Z,160
2018-07-20T04:57:40.439Z,165
2018-07-20T04:58:06.588Z,165
2018-07-20T04:58:32.723Z,165
2018-07-20T04:58:58.858Z,165
2018-07-20T04:59:25.036Z,165
2018-07-20T04:59:51.161Z,165
2018-07-20T05:00:17.341Z,165
2018-07-20T05:00:43.480Z,170
2018-07-20T05:01:09.626Z,170
2018-07-20T05:01:35.767Z,170
2018-07-20T05:02:01.910Z,175
2018-07-20T05:02:28.042Z,170
2018-07-20T05:02:54.214Z,175
2018-07-20T05:03:20.395Z,175
2018-07-20T05:03:46.675Z,180
2018-07-20T05:04:12.669Z,180
2018-07-20T05:04:38.833Z,180
2018-07-20T05:05:04.961Z,180
2018-07-20T05:05:31.125Z,180
2018-07-20T05:05:57.331Z,185
2018-07-20T05:06:23.399Z,185
2018-07-20T05:06:49.554Z,185
2018-07-20T05:07:15.706Z,185
2018-07-20T05:07:41.915Z,185
2018-07-20T05:08:08.050Z,185
2018-07-20T05:08:34.187Z,185
2018-07-20T05:09:00.329Z,185
2018-07-20T05:09:26.472Z,190
2018-07-20T05:09:52.613Z,190
2018-07-20T05:10:18.762Z,190
2018-07-20T05:10:44.884Z,190
2018-07-20T05:11:11.024Z,190
2018-07-20T05:11:37.160Z,190
2018-07-20T05:12:03.305Z,190
2018-07-20T05:12:29.444Z,190
2018-07-20T05:12:55.579Z,190
2018-07-20T05:13:21.725Z,190
2018-07-20T05:13:47.872Z,195
2018-07-20T05:14:14.017Z,195
2018-07-20T05:14:40.172Z,195
2018-07-20T05:15:06.314Z,200
2018-07-20T05:15:32.448Z,200
2018-07-20T05:15:58.617Z,200
2018-07-20T05:16:24.773Z,200
2018-07-20T05:16:50.906Z,205
2018-07-20T05:17:17.070Z,205
2018-07-20T05:17:43.221Z,205
2018-07-20T05:18:09.365Z,205
2018-07-20T05:18:35.497Z,200
2018-07-20T05:19:01.638Z,200
2018-07-20T05:19:27.798Z,200
2018-07-20T05:19:53.949Z,200
2018-07-20T05:20:20.097Z,200
2018-07-20T05:20:46.268Z,195
2018-07-20T05:21:12.401Z,195
2018-07-20T05:21:38.540Z,195
2018-07-20T05:22:04.686Z,195
2018-07-20T05:22:30.820Z,195
2018-07-20T05:22:56.957Z,195
2018-07-20T05:23:23.104Z,200
2018-07-20T05:23:49.237Z,200
2018-07-20T05:24:15.501Z,205
2018-07-20T05:24:41.578Z,205
2018-07-20T05:25:07.721Z,215
2018-07-20T05:25:33.859Z,210
2018-07-20T05:26:00.008Z,215
2018-07-20T05:26:26.170Z,220
2018-07-20T05:26:52.302Z,220
2018-07-20T05:27:18.448Z,225
2018-07-20T05:27:44.585Z,230
2018-07-20T05:28:10.723Z,230
2018-07-20T05:28:36.866Z,235
2018-07-20T05:29:03.321Z,235
2018-07-20T05:29:29.459Z,240
2018-07-20T05:29:55.595Z,245
2018-07-20T05:30:21.760Z,245
2018-07-20T05:30:47.893Z,250
2018-07-20T05:31:14.060Z,255
2018-07-20T05:31:40.194Z,255
2018-07-20T05:32:06.358Z,255
2018-07-20T05:32:32.525Z,260
2018-07-20T05:32:58.713Z,255
2018-07-20T05:33:24.844Z,255
2018-07-20T05:33:50.977Z,260
2018-07-20T05:34:17.119Z,265
2018-07-20T05:34:43.257Z,265
2018-07-20T05:35:09.419Z,265
2018-07-20T05:35:35.562Z,265
2018-07-20T05:36:01.706Z,270
2018-07-20T05:36:27.843Z,270
2018-07-20T05:36:53.987Z,275
2018-07-20T05:37:20.176Z,275
2018-07-20T05:37:46.315Z,280
2018-07-20T05:38:12.516Z,280
2018-07-20T05:38:38.607Z,285
2018-07-20T05:39:04.750Z,290
2018-07-20T05:39:30.913Z,285
2018-07-20T05:39:57.053Z,285
2018-07-20T05:40:23.189Z,290
2018-07-20T05:40:49.333Z,295
2018-07-20T05:41:15.470Z,290
2018-07-20T05:41:41.637Z,295
2018-07-20T05:42:07.757Z,295
2018-07-20T05:42:33.920Z,305
2018-07-20T05:43:00.063Z,300
2018-07-20T05:43:26.221Z,305
2018-07-20T05:43:52.391Z,310
2018-07-20T05:44:18.523Z,310
2018-07-20T05:44:44.683Z,315
2018-07-20T05:45:10.827Z,320
2018-07-20T05:45:36.965Z,320
2018-07-20T05:46:03.108Z,325
2018-07-20T05:46:29.254Z,325
2018-07-20T05:46:55.391Z,325
2018-07-20T05:47:21.537Z,330
2018-07-20T05:47:47.695Z,330
2018-07-20T05:48:13.830Z,335
2018-07-20T05:48:39.992Z,335
2018-07-20T05:49:06.133Z,335
2018-07-20T05:49:32.303Z,340
2018-07-20T05:49:58.441Z,345
2018-07-20T05:50:24.581Z,340
2018-07-20T05:50:50.720Z,345
2018-07-20T05:51:16.861Z,345
2018-07-20T05:51:43.005Z,345
2018-07-20T05:52:09.134Z,350
2018-07-20T05:52:35.276Z,350
2018-07-20T05:53:01.415Z,350
2018-07-20T05:53:27.641Z,355
2018-07-20T05:53:53.723Z,355
2018-07-20T05:54:19.863Z,355
2018-07-20T05:54:46.027Z,355
2018-07-20T05:55:12.172Z,355
2018-07-20T05:55:38.329Z,360
2018-07-20T05:56:04.469Z,365
2018-07-20T05:56:30.619Z,365
2018-07-20T05:56:56.789Z,365
2018-07-20T05:57:22.923Z,365
2018-07-20T05:57:49.057Z,370
2018-07-20T05:58:15.232Z,375
2018-07-20T05:58:41.373Z,375
2018-07-20T05:59:07.537Z,380
2018-07-20T05:59:33.674Z,380
2018-07-20T05:59:59.813Z,385
2018-07-20T06:00:25.975Z,385
2018-07-20T06:00:52.112Z,390
2018-07-20T06:01:18.243Z,395
2018-07-20T06:01:44.388Z,395
2018-07-20T06:02:10.526Z,405
2018-07-20T06:02:36.663Z,405
2018-07-20T06:03:02.807Z,405
2018-07-20T06:03:28.950Z,410
2018-07-20T06:03:55.078Z,410
2018-07-20T06:04:21.242Z,415
2018-07-20T06:04:47.405Z,415
2018-07-20T06:05:13.548Z,420
2018-07-20T06:05:39.793Z,420
2018-07-20T06:06:05.825Z,420
2018-07-20T06:06:31.971Z,420
2018-07-20T06:06:58.135Z,420
2018-07-20T06:07:24.261Z,420
2018-07-20T06:07:50.397Z,420
2018-07-20T06:08:16.565Z,420
2018-07-20T06:08:42.702Z,420
2018-07-20T06:09:08.871Z,420
2018-07-20T06:09:34.979Z,425
2018-07-20T06:10:01.114Z,425
2018-07-20T06:10:27.253Z,425
2018-07-20T06:10:53.397Z,425
2018-07-20T06:11:19.536Z,425
2018-07-20T06:11:45.671Z,425
2018-07-20T06:12:11.808Z,425
2018-07-20T06:12:37.946Z,425
2018-07-20T06:13:04.078Z,425
2018-07-20T06:13:30.225Z,425
2018-07-20T06:13:56.364Z,425
2018-07-20T06:14:22.517Z,420
2018-07-20T06:14:48.663Z,430
2018-07-20T06:15:14.824Z,425
2018-07-20T06:15:40.956Z,430
2018-07-20T06:16:07.098Z,430
2018-07-20T06:16:33.236Z,430
2018-07-20T06:16:59.372Z,430
2018-07-20T06:17:25.525Z,430
2018-07-20T06:17:51.664Z,435
2018-07-20T06:18:17.831Z,435